Time;durP1;ratioP1;P1;durP2;ratioP2;P2;SDS_P1;SDS_P2;PMS_P1;PMS_P2;Temp;Humidity;BMP_temperature;BMP_pressure;BME280_temperature;BME280_humidity;BME280_pressure;Samples;Min_cycle;Max_cycle;Signal;HPM_P1;HPM_P2
2020/12/26 00:01:39;;;;;;;22.00;8.93;;;;;;;;;;12700593;23;20181;-62
2020/12/26 00:06:42;;;;;;;22.43;9.60;;;;;;;;;;12694600;23;20181;-61
2020/12/26 00:11:43;;;;;;;24.63;8.87;;;;;;;;;;12701073;23;20204;-62
2020/12/26 00:16:45;;;;;;;19.43;8.63;;;;;;;;;;12700282;23;20188;-61
2020/12/26 00:21:55;;;;;;;17.63;8.63;;;;;;;;;;12720034;23;20174;-61
2020/12/26 00:26:57;;;;;;;21.23;8.73;;;;;;;;;;12698600;23;20181;-61
2020/12/26 00:31:58;;;;;;;23.90;9.30;;;;;;;;;;12700496;23;20698;-62
2020/12/26 00:37:01;;;;;;;24.40;8.23;;;;;;;;;;12695825;23;20209;-62
2020/12/26 00:42:02;;;;;;;27.17;9.70;;;;;;;;;;12700262;23;20184;-64
2020/12/26 00:47:04;;;;;;;26.30;7.97;;;;;;;;;;12698883;23;20782;-62
2020/12/26 00:52:14;;;;;;;20.57;8.07;;;;;;;;;;12700382;23;20280;-62
2020/12/26 00:57:16;;;;;;;18.30;7.77;;;;;;;;;;12697058;23;20231;-62
2020/12/26 01:02:17;;;;;;;16.17;7.47;;;;;;;;;;12699397;23;20221;-61
2020/12/26 01:07:20;;;;;;;17.77;7.30;;;;;;;;;;12695452;23;20176;-62
2020/12/26 01:12:21;;;;;;;18.93;7.80;;;;;;;;;;12720702;23;20212;-62
2020/12/26 01:17:24;;;;;;;19.37;7.03;;;;;;;;;;12700608;23;20240;-61
2020/12/26 01:22:34;;;;;;;17.03;7.70;;;;;;;;;;12703072;23;20201;-62
2020/12/26 01:27:36;;;;;;;16.00;7.20;;;;;;;;;;12702729;23;20180;-62
2020/12/26 02:09:20;;;;;;;11.70;3.97;;;;;;;;;;12713000;23;20208;-61
2020/12/26 02:14:22;;;;;;;6.20;3.70;;;;;;;;;;12704218;23;20208;-61
2020/12/26 02:19:25;;;;;;;7.07;3.50;;;;;;;;;;12702756;23;20177;-61
2020/12/26 02:24:27;;;;;;;10.27;3.00;;;;;;;;;;12700732;23;20244;-61
2020/12/26 02:29:29;;;;;;;9.40;2.77;;;;;;;;;;12702694;23;20185;-61
2020/12/26 02:34:31;;;;;;;7.57;2.70;;;;;;;;;;12699618;23;20213;-61
2020/12/26 02:39:33;;;;;;;12.47;2.90;;;;;;;;;;12699805;23;20615;-62
2020/12/26 02:44:35;;;;;;;6.93;2.80;;;;;;;;;;12701547;23;20177;-63
2020/12/26 02:49:36;;;;;;;8.03;3.00;;;;;;;;;;12702658;23;20494;-61
2020/12/26 02:54:39;;;;;;;7.10;3.03;;;;;;;;;;12700881;23;20211;-61
2020/12/26 02:59:41;;;;;;;6.03;2.63;;;;;;;;;;12701634;23;20813;-61
2020/12/26 03:04:42;;;;;;;7.13;2.60;;;;;;;;;;12699982;23;20181;-61
2020/12/26 03:09:45;;;;;;;11.40;2.80;;;;;;;;;;12759568;23;20208;-61
2020/12/26 03:14:47;;;;;;;8.73;2.80;;;;;;;;;;12761573;23;20218;-61
2020/12/26 03:19:49;;;;;;;6.83;2.40;;;;;;;;;;12761779;23;20489;-61
2020/12/26 03:24:51;;;;;;;12.30;3.10;;;;;;;;;;12760376;23;20510;-61
2020/12/26 03:29:53;;;;;;;6.60;3.00;;;;;;;;;;12763682;23;20191;-60
2020/12/26 03:34:55;;;;;;;12.33;4.00;;;;;;;;;;12759640;23;20547;-61
2020/12/26 03:39:58;;;;;;;11.07;4.80;;;;;;;;;;12761416;23;20842;-61
2020/12/26 03:44:59;;;;;;;13.40;4.77;;;;;;;;;;12758448;23;20524;-60
2020/12/26 03:50:01;;;;;;;8.77;4.30;;;;;;;;;;12762248;23;20180;-61
2020/12/26 03:55:03;;;;;;;8.97;3.87;;;;;;;;;;12760599;23;20183;-60
2020/12/26 04:00:06;;;;;;;8.00;3.60;;;;;;;;;;12763957;23;20824;-63
2020/12/26 04:05:08;;;;;;;16.57;4.10;;;;;;;;;;12758533;23;20176;-60
2020/12/26 04:10:10;;;;;;;6.03;3.40;;;;;;;;;;12782894;23;20656;-60
2020/12/26 04:15:12;;;;;;;17.93;3.03;;;;;;;;;;12761052;23;20813;-61
2020/12/26 04:20:14;;;;;;;6.73;2.40;;;;;;;;;;12759487;23;20180;-61
2020/12/26 04:25:17;;;;;;;11.83;2.30;;;;;;;;;;12760784;23;20184;-61
2020/12/26 04:30:19;;;;;;;5.00;2.37;;;;;;;;;;12761394;23;20647;-61
2020/12/26 04:35:21;;;;;;;5.13;2.00;;;;;;;;;;12762132;23;20179;-61
2020/12/26 04:40:23;;;;;;;7.63;2.00;;;;;;;;;;12764544;23;20185;-61
2020/12/26 04:45:25;;;;;;;10.20;1.53;;;;;;;;;;12761799;23;20642;-61
2020/12/26 04:50:27;;;;;;;5.60;2.07;;;;;;;;;;12757676;23;20520;-61
2020/12/26 04:55:31;;;;;;;12.60;2.20;;;;;;;;;;12761449;23;20206;-61
2020/12/26 05:00:34;;;;;;;6.90;1.90;;;;;;;;;;12760082;23;20188;-61
2020/12/26 05:05:36;;;;;;;5.20;2.10;;;;;;;;;;12759824;23;20243;-61
2020/12/26 05:10:39;;;;;;;7.40;2.00;;;;;;;;;;12759423;23;20208;-61
2020/12/26 05:15:41;;;;;;;5.37;2.00;;;;;;;;;;12760571;23;20239;-61
2020/12/26 05:20:43;;;;;;;7.83;1.80;;;;;;;;;;12759558;23;20180;-61
2020/12/26 05:25:46;;;;;;;13.17;1.93;;;;;;;;;;12761370;23;20192;-61
2020/12/26 05:30:49;;;;;;;9.17;1.90;;;;;;;;;;12764234;23;20550;-61
2020/12/26 05:35:52;;;;;;;11.00;2.00;;;;;;;;;;12763924;23;20188;-61
2020/12/26 05:40:55;;;;;;;11.23;1.60;;;;;;;;;;12763872;23;20187;-62
2020/12/26 05:45:57;;;;;;;6.47;1.80;;;;;;;;;;12764249;23;20192;-61
2020/12/26 05:51:00;;;;;;;6.27;2.00;;;;;;;;;;12763448;23;20239;-61
2020/12/26 05:56:02;;;;;;;6.47;2.07;;;;;;;;;;12765527;23;20176;-62
2020/12/26 06:01:04;;;;;;;3.30;1.50;;;;;;;;;;12762089;23;20259;-60
2020/12/26 06:06:06;;;;;;;5.73;1.87;;;;;;;;;;12762786;23;20204;-61
2020/12/26 06:11:09;;;;;;;8.27;2.03;;;;;;;;;;12763356;23;20280;-60
2020/12/26 06:16:11;;;;;;;10.20;1.97;;;;;;;;;;12763675;23;20180;-60
2020/12/26 06:21:13;;;;;;;8.23;1.87;;;;;;;;;;12760279;23;20188;-60
2020/12/26 06:26:16;;;;;;;3.90;1.60;;;;;;;;;;12764969;23;20180;-60
2020/12/26 06:31:18;;;;;;;8.23;2.10;;;;;;;;;;12762361;23;20208;-62
2020/12/26 06:36:20;;;;;;;9.93;2.20;;;;;;;;;;12761419;23;20187;-62
2020/12/26 06:41:23;;;;;;;10.03;2.17;;;;;;;;;;12760271;23;20193;-60
2020/12/26 06:46:40;;;;;;;12.07;2.30;;;;;;;;;;12762404;23;20183;-63
2020/12/26 06:51:42;;;;;;;6.97;2.00;;;;;;;;;;12779670;23;20192;-63
2020/12/26 06:56:48;;;;;;;15.57;2.20;;;;;;;;;;12763466;23;20248;-62
2020/12/26 07:01:49;;;;;;;5.77;2.20;;;;;;;;;;12760170;23;20192;-60
2020/12/26 07:06:53;;;;;;;10.33;2.10;;;;;;;;;;12748823;23;20211;-62
2020/12/26 07:11:55;;;;;;;11.70;2.20;;;;;;;;;;12760182;23;20219;-62
2020/12/26 07:16:57;;;;;;;4.27;2.07;;;;;;;;;;12760553;23;20192;-60
2020/12/26 07:22:00;;;;;;;11.10;2.67;;;;;;;;;;12760570;23;20172;-61
2020/12/26 07:27:12;;;;;;;10.00;2.60;;;;;;;;;;12762718;23;20291;-62
2020/12/26 07:32:37;;;;;;;9.70;2.33;;;;;;;;;;12762797;23;20288;-63
2020/12/26 07:37:39;;;;;;;12.83;2.50;;;;;;;;;;12778742;23;20180;-61
2020/12/26 07:42:43;;;;;;;12.50;3.10;;;;;;;;;;12762992;23;20796;-61
2020/12/26 07:47:45;;;;;;;7.63;3.03;;;;;;;;;;12764222;23;20176;-62
2020/12/26 07:52:47;;;;;;;11.80;3.47;;;;;;;;;;12761760;23;20670;-62
2020/12/26 07:57:49;;;;;;;10.83;3.47;;;;;;;;;;12760665;23;20183;-61
2020/12/26 08:02:52;;;;;;;7.87;3.50;;;;;;;;;;12762927;23;20181;-62
2020/12/26 08:07:53;;;;;;;10.90;3.50;;;;;;;;;;12756677;23;20200;-62
2020/12/26 08:12:57;;;;;;;10.03;3.90;;;;;;;;;;12762817;23;20219;-62
2020/12/26 08:17:59;;;;;;;7.77;4.00;;;;;;;;;;12759551;23;20212;-62
2020/12/26 08:23:11;;;;;;;9.53;4.47;;;;;;;;;;12781408;23;20179;-62
2020/12/26 08:28:17;;;;;;;12.70;4.97;;;;;;;;;;12781532;23;20570;-62
2020/12/26 08:33:26;;;;;;;10.63;4.90;;;;;;;;;;12767125;23;20212;-62
2020/12/26 08:38:31;;;;;;;11.73;5.00;;;;;;;;;;12782069;23;20685;-62
2020/12/26 08:43:37;;;;;;;12.33;5.20;;;;;;;;;;12781572;23;20169;-62
2020/12/26 08:48:40;;;;;;;13.17;5.00;;;;;;;;;;12781677;23;20187;-62
2020/12/26 08:53:43;;;;;;;13.67;5.47;;;;;;;;;;12759777;23;20214;-62
2020/12/26 08:58:49;;;;;;;13.60;5.27;;;;;;;;;;12760900;23;20799;-62
2020/12/26 09:03:51;;;;;;;18.10;5.10;;;;;;;;;;12757267;23;20654;-62
2020/12/26 09:08:53;;;;;;;16.47;5.10;;;;;;;;;;12758109;23;20276;-61
2020/12/26 09:13:55;;;;;;;11.13;4.87;;;;;;;;;;12760577;23;20214;-61
2020/12/26 09:19:00;;;;;;;11.67;4.80;;;;;;;;;;12761020;23;20756;-62
2020/12/26 09:24:02;;;;;;;14.20;4.80;;;;;;;;;;12758107;23;20176;-62
2020/12/26 09:29:04;;;;;;;12.20;4.70;;;;;;;;;;12762097;23;20255;-62
2020/12/26 09:34:13;;;;;;;11.03;4.00;;;;;;;;;;12759378;23;20219;-61
2020/12/26 09:39:15;;;;;;;13.73;4.67;;;;;;;;;;12780786;23;20221;-62
2020/12/26 09:44:17;;;;;;;13.00;4.37;;;;;;;;;;12759752;23;20176;-61
2020/12/26 09:49:19;;;;;;;8.73;3.70;;;;;;;;;;12760479;23;20183;-61
2020/12/26 09:54:21;;;;;;;9.63;4.23;;;;;;;;;;12758035;23;20216;-61
2020/12/26 09:59:23;;;;;;;13.77;4.17;;;;;;;;;;12761163;23;20177;-62
2020/12/26 10:04:25;;;;;;;12.00;4.70;;;;;;;;;;12758929;23;20203;-62
2020/12/26 10:09:27;;;;;;;10.77;3.93;;;;;;;;;;12760514;23;20203;-61
2020/12/26 10:14:30;;;;;;;6.47;3.30;;;;;;;;;;12762877;23;20212;-62
2020/12/26 10:19:31;;;;;;;12.23;3.30;;;;;;;;;;12763607;23;20284;-62
2020/12/26 10:24:33;;;;;;;14.97;3.80;;;;;;;;;;12760391;23;20667;-62
2020/12/26 10:29:36;;;;;;;8.30;3.47;;;;;;;;;;12765262;23;20187;-63
2020/12/26 10:34:38;;;;;;;7.17;3.87;;;;;;;;;;12761392;23;20209;-62
2020/12/26 10:39:39;;;;;;;15.03;4.03;;;;;;;;;;12761938;23;20184;-62
2020/12/26 10:44:42;;;;;;;9.10;3.83;;;;;;;;;;12768267;23;20191;-62
2020/12/26 10:49:43;;;;;;;9.60;3.87;;;;;;;;;;12763561;23;20182;-62
2020/12/26 10:54:45;;;;;;;16.40;4.70;;;;;;;;;;12762126;23;20208;-62
2020/12/26 10:59:47;;;;;;;11.67;4.13;;;;;;;;;;12762266;23;20251;-62
2020/12/26 11:04:49;;;;;;;13.13;4.63;;;;;;;;;;12761093;23;20520;-62
2020/12/26 11:09:51;;;;;;;12.13;4.20;;;;;;;;;;12746513;23;20885;-62
2020/12/26 11:14:53;;;;;;;15.60;5.20;;;;;;;;;;12763710;23;20212;-62
2020/12/26 11:19:55;;;;;;;10.27;4.83;;;;;;;;;;12762224;23;20181;-62
2020/12/26 11:24:57;;;;;;;13.53;4.03;;;;;;;;;;12763287;23;20184;-62
2020/12/26 11:30:00;;;;;;;12.57;4.30;;;;;;;;;;12761198;23;20180;-62
2020/12/26 11:35:02;;;;;;;14.40;4.80;;;;;;;;;;12762227;23;20227;-62
2020/12/26 11:40:04;;;;;;;12.03;4.03;;;;;;;;;;12761435;23;20180;-62
2020/12/26 11:45:07;;;;;;;11.13;4.20;;;;;;;;;;12762450;23;20177;-62
2020/12/26 11:50:08;;;;;;;13.97;5.17;;;;;;;;;;12759510;23;20176;-62
2020/12/26 11:55:11;;;;;;;8.33;4.53;;;;;;;;;;12762391;23;20212;-62
2020/12/26 12:00:13;;;;;;;12.27;4.13;;;;;;;;;;12759417;23;20182;-62
2020/12/26 12:05:15;;;;;;;9.63;4.37;;;;;;;;;;12761071;23;20211;-62
2020/12/26 12:10:17;;;;;;;18.57;5.60;;;;;;;;;;12780630;23;20579;-62
2020/12/26 12:15:19;;;;;;;12.07;4.50;;;;;;;;;;12762253;23;20207;-62
2020/12/26 12:20:21;;;;;;;13.33;3.93;;;;;;;;;;12758982;23;20192;-62
2020/12/26 12:25:24;;;;;;;12.00;4.00;;;;;;;;;;12761085;23;20677;-62
2020/12/26 12:30:27;;;;;;;9.47;3.83;;;;;;;;;;12759245;23;20699;-62
2020/12/26 12:35:28;;;;;;;7.97;3.53;;;;;;;;;;12761255;23;20208;-62
2020/12/26 12:40:30;;;;;;;12.03;4.00;;;;;;;;;;12759487;23;20182;-62
2020/12/26 12:45:33;;;;;;;11.83;4.10;;;;;;;;;;12761708;23;20176;-62
2020/12/26 12:50:34;;;;;;;10.57;3.73;;;;;;;;;;12757959;23;20519;-62
2020/12/26 12:55:36;;;;;;;8.00;3.80;;;;;;;;;;12761781;23;20218;-61
2020/12/26 13:00:38;;;;;;;13.07;4.20;;;;;;;;;;12758826;23;20276;-61
2020/12/26 13:05:40;;;;;;;11.83;3.90;;;;;;;;;;12758844;23;20204;-61
2020/12/26 13:10:42;;;;;;;11.23;4.30;;;;;;;;;;12758965;23;20686;-61
2020/12/26 13:15:44;;;;;;;13.03;5.00;;;;;;;;;;12761601;23;20207;-61
2020/12/26 13:20:48;;;;;;;12.90;4.90;;;;;;;;;;12761867;23;20180;-61
2020/12/26 13:25:50;;;;;;;9.80;4.63;;;;;;;;;;12763027;23;20752;-62
2020/12/26 13:30:52;;;;;;;15.80;4.77;;;;;;;;;;12760871;23;20196;-61
2020/12/26 13:35:54;;;;;;;10.57;4.60;;;;;;;;;;12757554;23;20207;-63
2020/12/26 13:40:56;;;;;;;12.60;5.47;;;;;;;;;;12762037;23;20180;-61
2020/12/26 13:45:58;;;;;;;11.97;4.73;;;;;;;;;;12760662;23;20176;-61
2020/12/26 13:51:01;;;;;;;12.40;5.50;;;;;;;;;;12762654;23;20204;-62
2020/12/26 13:56:02;;;;;;;14.73;4.83;;;;;;;;;;12763700;23;20208;-62
2020/12/26 14:01:05;;;;;;;11.20;5.00;;;;;;;;;;12764178;23;20176;-62
2020/12/26 14:06:12;;;;;;;9.47;5.27;;;;;;;;;;12760538;23;20260;-62
2020/12/26 14:11:13;;;;;;;14.10;5.50;;;;;;;;;;12762451;23;20184;-61
2020/12/26 14:16:23;;;;;;;12.07;5.30;;;;;;;;;;12762637;23;20183;-62
2020/12/26 14:21:31;;;;;;;13.97;5.10;;;;;;;;;;12763544;23;20176;-62
2020/12/26 14:26:32;;;;;;;13.93;5.27;;;;;;;;;;12761624;23;20926;-61
2020/12/26 14:31:35;;;;;;;12.50;5.63;;;;;;;;;;12784710;23;20997;-61
2020/12/26 14:36:37;;;;;;;17.13;6.63;;;;;;;;;;12761191;23;20181;-62
2020/12/26 14:41:38;;;;;;;15.87;7.17;;;;;;;;;;12763462;23;20263;-61
2020/12/26 14:46:41;;;;;;;13.77;6.53;;;;;;;;;;12761352;23;20194;-61
2020/12/26 14:51:43;;;;;;;24.67;7.80;;;;;;;;;;12761712;23;20555;-63
2020/12/26 14:56:45;;;;;;;17.10;7.37;;;;;;;;;;12759877;23;20614;-62
2020/12/26 15:01:48;;;;;;;16.13;8.03;;;;;;;;;;12762765;23;20176;-61
2020/12/26 15:06:52;;;;;;;13.03;8.60;;;;;;;;;;12759287;23;20204;-63
2020/12/26 15:11:53;;;;;;;16.47;9.03;;;;;;;;;;12763476;23;20215;-61
2020/12/26 15:16:56;;;;;;;18.33;8.63;;;;;;;;;;12761455;23;20188;-61
2020/12/26 15:21:58;;;;;;;20.73;9.63;;;;;;;;;;12761590;23;20187;-64
2020/12/26 15:26:59;;;;;;;16.70;10.00;;;;;;;;;;12760682;23;20192;-62
2020/12/26 15:32:02;;;;;;;21.37;10.97;;;;;;;;;;12761706;23;20700;-61
2020/12/26 15:37:04;;;;;;;23.90;11.90;;;;;;;;;;12758870;23;20176;-60
2020/12/26 15:42:06;;;;;;;21.27;12.13;;;;;;;;;;12763776;23;20191;-61
2020/12/26 15:47:08;;;;;;;22.80;11.60;;;;;;;;;;12758199;23;20736;-62
2020/12/26 15:52:11;;;;;;;20.00;13.07;;;;;;;;;;12761760;23;20263;-60
2020/12/26 15:57:12;;;;;;;24.23;13.77;;;;;;;;;;12760304;23;20183;-61
2020/12/26 16:02:15;;;;;;;22.23;13.43;;;;;;;;;;12763062;23;20180;-60
2020/12/26 16:07:17;;;;;;;18.00;10.90;;;;;;;;;;12763439;23;20216;-60
2020/12/26 16:12:20;;;;;;;19.53;11.63;;;;;;;;;;12762346;23;20207;-61
2020/12/26 16:17:22;;;;;;;15.23;11.47;;;;;;;;;;12761551;23;20326;-60
2020/12/26 16:22:24;;;;;;;21.97;12.77;;;;;;;;;;12757668;23;20524;-61
2020/12/26 16:27:25;;;;;;;24.63;14.20;;;;;;;;;;12761128;23;20949;-61
2020/12/26 16:32:28;;;;;;;20.27;12.53;;;;;;;;;;12758627;23;20203;-61
2020/12/26 16:37:30;;;;;;;20.03;14.47;;;;;;;;;;12759370;23;20176;-62
2020/12/26 16:42:31;;;;;;;20.80;12.60;;;;;;;;;;12760621;23;20191;-61
2020/12/26 16:47:34;;;;;;;18.67;12.63;;;;;;;;;;12760242;23;20180;-61
2020/12/26 16:52:36;;;;;;;20.83;12.87;;;;;;;;;;12757456;23;20705;-61
2020/12/26 16:57:37;;;;;;;19.53;13.60;;;;;;;;;;12761010;23;20195;-62
2020/12/26 17:02:40;;;;;;;24.77;14.27;;;;;;;;;;12759734;23;20251;-62
2020/12/26 17:07:42;;;;;;;22.10;13.97;;;;;;;;;;12756666;23;20216;-61
2020/12/26 17:12:46;;;;;;;19.60;13.83;;;;;;;;;;12759448;23;20212;-61
2020/12/26 17:17:50;;;;;;;21.63;13.63;;;;;;;;;;12760932;23;20187;-61
2020/12/26 17:22:52;;;;;;;30.37;15.50;;;;;;;;;;12757146;23;20183;-61
2020/12/26 17:27:53;;;;;;;18.53;13.70;;;;;;;;;;12761323;23;20181;-61
2020/12/26 17:32:56;;;;;;;22.67;13.80;;;;;;;;;;12759441;23;20668;-61
2020/12/26 17:37:57;;;;;;;19.33;14.23;;;;;;;;;;12758841;23;20176;-61
2020/12/26 17:42:59;;;;;;;19.17;12.23;;;;;;;;;;12758642;23;20271;-61
2020/12/26 17:48:02;;;;;;;18.57;12.43;;;;;;;;;;12759961;23;20494;-62
2020/12/26 17:53:03;;;;;;;19.63;12.87;;;;;;;;;;12756274;23;20214;-61
2020/12/26 17:58:05;;;;;;;20.80;12.50;;;;;;;;;;12760398;23;20180;-61
2020/12/26 18:03:15;;;;;;;20.30;13.57;;;;;;;;;;12757538;23;20180;-62
2020/12/26 18:08:17;;;;;;;16.57;12.30;;;;;;;;;;12758112;23;20204;-61
2020/12/26 18:13:18;;;;;;;19.23;13.00;;;;;;;;;;12758969;23;20219;-62
2020/12/26 18:18:21;;;;;;;16.67;11.77;;;;;;;;;;12759660;23;20631;-61
2020/12/26 18:23:23;;;;;;;15.50;10.90;;;;;;;;;;12757133;23;20862;-61
2020/12/26 18:28:24;;;;;;;14.73;11.47;;;;;;;;;;12761207;23;20187;-61
2020/12/26 18:33:31;;;;;;;16.10;10.33;;;;;;;;;;12758204;23;20204;-61
2020/12/26 18:38:35;;;;;;;16.97;10.73;;;;;;;;;;12763330;23;20693;-61
2020/12/26 18:43:37;;;;;;;17.07;11.00;;;;;;;;;;12763286;23;20275;-62
2020/12/26 18:48:40;;;;;;;15.40;10.00;;;;;;;;;;12764014;23;20186;-61
2020/12/26 18:53:42;;;;;;;16.33;11.23;;;;;;;;;;12766163;23;20209;-61
2020/12/26 18:58:43;;;;;;;16.97;9.50;;;;;;;;;;12762921;23;20183;-61
2020/12/26 19:03:53;;;;;;;14.57;9.87;;;;;;;;;;12780947;23;20173;-61
2020/12/26 19:08:55;;;;;;;14.60;10.93;;;;;;;;;;12759228;23;20279;-61
2020/12/26 19:13:57;;;;;;;16.60;9.43;;;;;;;;;;12764091;23;20208;-61
2020/12/26 19:18:59;;;;;;;17.57;10.53;;;;;;;;;;12758866;23;20184;-61
2020/12/26 19:24:04;;;;;;;17.00;11.53;;;;;;;;;;12782628;23;20231;-61
2020/12/26 19:29:07;;;;;;;14.27;9.67;;;;;;;;;;12762942;23;20184;-61
2020/12/26 19:34:13;;;;;;;13.80;9.93;;;;;;;;;;12766484;23;20238;-61
2020/12/26 19:39:14;;;;;;;15.27;10.03;;;;;;;;;;12759744;23;20846;-61
2020/12/26 19:44:16;;;;;;;12.97;9.80;;;;;;;;;;12762195;23;20251;-61
2020/12/26 19:49:19;;;;;;;13.53;8.63;;;;;;;;;;12761248;23;20176;-61
2020/12/26 19:54:21;;;;;;;16.50;9.63;;;;;;;;;;12759918;23;20938;-62
2020/12/26 19:59:23;;;;;;;15.47;10.03;;;;;;;;;;12759431;23;20728;-61
2020/12/26 20:04:30;;;;;;;18.97;10.17;;;;;;;;;;12780735;23;20235;-62
2020/12/26 20:09:32;;;;;;;14.43;8.67;;;;;;;;;;12761766;23;20208;-61
2020/12/26 20:14:34;;;;;;;16.13;8.97;;;;;;;;;;12760592;23;20697;-61
2020/12/26 20:19:37;;;;;;;12.80;8.83;;;;;;;;;;12762843;23;20776;-61
2020/12/26 20:24:38;;;;;;;11.13;7.97;;;;;;;;;;12758920;23;20176;-61
2020/12/26 20:29:40;;;;;;;13.93;9.90;;;;;;;;;;12761862;23;20184;-61
2020/12/26 20:34:51;;;;;;;18.40;8.77;;;;;;;;;;12746927;23;20267;-61
2020/12/26 20:39:53;;;;;;;15.90;9.67;;;;;;;;;;12760617;23;20180;-62
2020/12/26 20:44:56;;;;;;;17.90;10.03;;;;;;;;;;12761614;23;20183;-61
2020/12/26 20:49:58;;;;;;;14.30;8.93;;;;;;;;;;12760099;23;20180;-61
2020/12/26 20:55:00;;;;;;;13.60;8.40;;;;;;;;;;12760056;23;20196;-61
2020/12/26 21:00:01;;;;;;;14.30;8.53;;;;;;;;;;12761713;23;20179;-61
2020/12/26 21:05:09;;;;;;;13.87;8.60;;;;;;;;;;12757043;23;20495;-61
2020/12/26 21:10:12;;;;;;;12.70;8.57;;;;;;;;;;12761274;23;20173;-61
2020/12/26 21:15:14;;;;;;;13.60;8.50;;;;;;;;;;12759435;23;20208;-62
2020/12/26 21:20:18;;;;;;;11.80;8.40;;;;;;;;;;12759273;23;20913;-61
2020/12/26 21:25:20;;;;;;;15.47;8.03;;;;;;;;;;12758705;23;20180;-61
2020/12/26 21:30:21;;;;;;;14.33;8.30;;;;;;;;;;12760659;23;20524;-62
2020/12/26 21:35:26;;;;;;;17.93;8.90;;;;;;;;;;12758977;23;20232;-61
2020/12/26 21:40:28;;;;;;;12.60;7.33;;;;;;;;;;12760492;23;20782;-61
2020/12/26 21:45:30;;;;;;;12.90;8.50;;;;;;;;;;12760690;23;20573;-61
2020/12/26 21:50:32;;;;;;;16.73;8.10;;;;;;;;;;12760309;23;20172;-61
2020/12/26 21:55:34;;;;;;;13.67;8.43;;;;;;;;;;12758463;23;20666;-61
2020/12/26 22:00:35;;;;;;;12.47;8.20;;;;;;;;;;12760550;23;20180;-62
2020/12/26 22:05:48;;;;;;;11.97;7.90;;;;;;;;;;12772702;23;20841;-62
2020/12/26 22:10:51;;;;;;;14.30;7.63;;;;;;;;;;12763184;23;20642;-62
2020/12/26 22:15:53;;;;;;;11.80;7.30;;;;;;;;;;12760783;23;20275;-62
2020/12/26 22:20:55;;;;;;;9.57;7.50;;;;;;;;;;12762584;23;20521;-62
2020/12/26 22:25:58;;;;;;;10.50;7.40;;;;;;;;;;12761040;23;20177;-62
2020/12/26 22:31:00;;;;;;;11.23;7.03;;;;;;;;;;12762991;23;20200;-61
2020/12/26 22:36:12;;;;;;;12.53;7.23;;;;;;;;;;12759475;23;20490;-61
2020/12/26 22:41:14;;;;;;;11.67;7.37;;;;;;;;;;12763439;23;20589;-62
2020/12/26 22:46:16;;;;;;;13.80;7.57;;;;;;;;;;12763270;23;20880;-61
2020/12/26 22:51:19;;;;;;;11.50;7.13;;;;;;;;;;12760509;23;20187;-61
2020/12/26 22:56:21;;;;;;;17.17;8.10;;;;;;;;;;12762388;23;20208;-61
2020/12/26 23:01:23;;;;;;;9.87;7.30;;;;;;;;;;12760870;23;20260;-62
2020/12/26 23:06:28;;;;;;;12.53;7.47;;;;;;;;;;12760491;23;20235;-62
2020/12/26 23:11:30;;;;;;;8.87;6.90;;;;;;;;;;12760060;23;20172;-62
2020/12/26 23:16:31;;;;;;;10.47;7.10;;;;;;;;;;12763309;23;20211;-62
2020/12/26 23:21:34;;;;;;;11.23;7.27;;;;;;;;;;12759944;23;20199;-62
2020/12/26 23:26:36;;;;;;;10.93;7.00;;;;;;;;;;12762940;23;20196;-62
2020/12/26 23:31:37;;;;;;;11.97;6.67;;;;;;;;;;12760845;23;20196;-62
2020/12/26 23:36:47;;;;;;;9.27;6.80;;;;;;;;;;12760034;23;20738;-62
2020/12/26 23:41:49;;;;;;;9.77;6.90;;;;;;;;;;12760559;23;20177;-61
2020/12/26 23:46:51;;;;;;;11.00;7.33;;;;;;;;;;12762041;23;20652;-61
2020/12/26 23:51:53;;;;;;;12.40;7.57;;;;;;;;;;12759897;23;20177;-62
2020/12/26 23:56:55;;;;;;;11.10;7.43;;;;;;;;;;12763667;23;20204;-61
